sensor_id;sensor_type;location;lat;lon;timestamp;pressure;altitude;pressure_sealevel;temperature;humidity
5777;BME280;2914;42.668;23.346;2023-03-21T00:00:20;94348.44;;;14.42;53.25
5777;BME280;2914;42.668;23.346;2023-03-21T00:02:49;94342.96;;;14.44;53.29
5777;BME280;2914;42.668;23.346;2023-03-21T00:05:18;94334.83;;;14.46;53.32
5777;BME280;2914;42.668;23.346;2023-03-21T00:07:48;94336.97;;;14.46;53.51
5777;BME280;2914;42.668;23.346;2023-03-21T00:10:17;94337.13;;;14.49;53.25
5777;BME280;2914;42.668;23.346;2023-03-21T00:12:46;94340.32;;;14.40;53.25
5777;BME280;2914;42.668;23.346;2023-03-21T00:15:17;94339.98;;;14.39;53.17
5777;BME280;2914;42.668;23.346;2023-03-21T00:17:46;94338.83;;;14.37;53.11
5777;BME280;2914;42.668;23.346;2023-03-21T00:23:00;94331.11;;;14.11;54.76
5777;BME280;2914;42.668;23.346;2023-03-21T00:25:30;94335.30;;;13.93;55.40
5777;BME280;2914;42.668;23.346;2023-03-21T00:27:59;94334.45;;;13.88;55.64
5777;BME280;2914;42.668;23.346;2023-03-21T00:30:28;94335.14;;;13.82;55.98
5777;BME280;2914;42.668;23.346;2023-03-21T00:32:57;94332.97;;;13.82;56.02
5777;BME280;2914;42.668;23.346;2023-03-21T00:35:27;94335.14;;;13.74;56.55
5777;BME280;2914;42.668;23.346;2023-03-21T00:37:56;94338.78;;;13.65;57.04
5777;BME280;2914;42.668;23.346;2023-03-21T00:40:25;94344.91;;;13.57;57.32
5777;BME280;2914;42.668;23.346;2023-03-21T00:42:54;94346.05;;;13.58;57.49
5777;BME280;2914;42.668;23.346;2023-03-21T00:45:23;94342.25;;;13.49;57.93
5777;BME280;2914;42.668;23.346;2023-03-21T00:47:52;94340.62;;;13.48;58.11
5777;BME280;2914;42.668;23.346;2023-03-21T00:50:21;94337.63;;;13.51;58.04
5777;BME280;2914;42.668;23.346;2023-03-21T00:52:50;94335.63;;;13.53;57.95
5777;BME280;2914;42.668;23.346;2023-03-21T00:55:19;94333.48;;;13.52;57.98
5777;BME280;2914;42.668;23.346;2023-03-21T00:57:48;94343.09;;;13.62;57.83
5777;BME280;2914;42.668;23.346;2023-03-21T01:00:19;94330.66;;;13.50;58.10
5777;BME280;2914;42.668;23.346;2023-03-21T01:02:49;94332.50;;;13.53;58.01
5777;BME280;2914;42.668;23.346;2023-03-21T01:05:25;94326.69;;;13.54;57.92
5777;BME280;2914;42.668;23.346;2023-03-21T01:08:15;94327.67;;;13.57;57.72
5777;BME280;2914;42.668;23.346;2023-03-21T01:10:46;94331.82;;;13.55;57.82
5777;BME280;2914;42.668;23.346;2023-03-21T01:13:18;94329.68;;;13.59;57.78
5777;BME280;2914;42.668;23.346;2023-03-21T01:15:49;94326.52;;;13.60;57.66
5777;BME280;2914;42.668;23.346;2023-03-21T01:18:20;94325.88;;;13.57;57.68
5777;BME280;2914;42.668;23.346;2023-03-21T01:20:50;94322.88;;;13.56;57.76
5777;BME280;2914;42.668;23.346;2023-03-21T01:23:19;94319.56;;;13.50;57.90
5777;BME280;2914;42.668;23.346;2023-03-21T01:25:49;94317.25;;;13.51;57.82
5777;BME280;2914;42.668;23.346;2023-03-21T01:28:18;94311.78;;;13.49;57.75
5777;BME280;2914;42.668;23.346;2023-03-21T01:30:48;94325.36;;;13.50;57.73
5777;BME280;2914;42.668;23.346;2023-03-21T01:33:18;94325.20;;;13.47;57.72
5777;BME280;2914;42.668;23.346;2023-03-21T01:35:48;94328.19;;;13.44;57.77
5777;BME280;2914;42.668;23.346;2023-03-21T01:38:17;94325.20;;;13.43;57.86
5777;BME280;2914;42.668;23.346;2023-03-21T01:40:48;94327.02;;;13.38;58.05
5777;BME280;2914;42.668;23.346;2023-03-21T01:43:23;94322.37;;;13.36;58.14
5777;BME280;2914;42.668;23.346;2023-03-21T01:46:20;94319.25;;;13.37;58.08
5777;BME280;2914;42.668;23.346;2023-03-21T01:51:39;94310.80;;;13.42;58.20
5777;BME280;2914;42.668;23.346;2023-03-21T01:54:11;94321.70;;;13.34;58.28
5777;BME280;2914;42.668;23.346;2023-03-21T01:56:43;94323.50;;;13.34;58.33
5777;BME280;2914;42.668;23.346;2023-03-21T01:59:17;94318.70;;;13.21;58.78
5777;BME280;2914;42.668;23.346;2023-03-21T02:01:49;94319.38;;;13.23;58.84
5777;BME280;2914;42.668;23.346;2023-03-21T02:04:19;94314.08;;;13.19;58.90
5777;BME280;2914;42.668;23.346;2023-03-21T02:06:53;94314.21;;;13.17;59.00
5777;BME280;2914;42.668;23.346;2023-03-21T02:09:25;94318.86;;;13.15;58.82
5777;BME280;2914;42.668;23.346;2023-03-21T02:11:55;94316.38;;;13.14;58.72
5777;BME280;2914;42.668;23.346;2023-03-21T02:14:24;94312.73;;;13.06;58.98
5777;BME280;2914;42.668;23.346;2023-03-21T02:16:59;94307.91;;;13.02;59.14
5777;BME280;2914;42.668;23.346;2023-03-21T02:25:53;94300.77;;;12.82;59.69
5777;BME280;2914;42.668;23.346;2023-03-21T02:34:45;94298.78;;;12.84;59.73
5777;BME280;2914;42.668;23.346;2023-03-21T02:37:20;94304.06;;;12.80;59.78
5777;BME280;2914;42.668;23.346;2023-03-21T02:39:58;94305.55;;;12.78;59.38
5777;BME280;2914;42.668;23.346;2023-03-21T02:42:31;94304.87;;;12.76;59.39
5777;BME280;2914;42.668;23.346;2023-03-21T02:45:04;94305.88;;;12.75;59.22
5777;BME280;2914;42.668;23.346;2023-03-21T02:47:36;94305.38;;;12.76;59.16
5777;BME280;2914;42.668;23.346;2023-03-21T02:52:48;94297.95;;;12.79;59.53
5777;BME280;2914;42.668;23.346;2023-03-21T02:55:21;94301.08;;;12.79;59.38
5777;BME280;2914;42.668;23.346;2023-03-21T02:57:53;94298.43;;;12.79;59.46
5777;BME280;2914;42.668;23.346;2023-03-21T03:00:25;94300.77;;;12.82;59.41
5777;BME280;2914;42.668;23.346;2023-03-21T03:02:54;94299.75;;;12.79;59.85
5777;BME280;2914;42.668;23.346;2023-03-21T03:05:26;94294.97;;;12.82;59.80
5777;BME280;2914;42.668;23.346;2023-03-21T03:08:01;94295.09;;;12.60;60.25
5777;BME280;2914;42.668;23.346;2023-03-21T03:10:38;94306.66;;;12.63;60.22
5777;BME280;2914;42.668;23.346;2023-03-21T03:13:14;94304.53;;;12.67;60.32
5777;BME280;2914;42.668;23.346;2023-03-21T03:15:49;94302.70;;;12.67;60.32
5777;BME280;2914;42.668;23.346;2023-03-21T03:18:23;94305.84;;;12.59;60.66
5777;BME280;2914;42.668;23.346;2023-03-21T03:20:57;94305.17;;;12.65;60.41
5777;BME280;2914;42.668;23.346;2023-03-21T03:23:30;94309.13;;;12.61;60.69
5777;BME280;2914;42.668;23.346;2023-03-21T03:26:03;94305.11;;;12.44;61.59
5777;BME280;2914;42.668;23.346;2023-03-21T03:28:36;94308.37;;;12.30;62.41
5777;BME280;2914;42.668;23.346;2023-03-21T03:31:07;94303.89;;;12.30;62.38
5777;BME280;2914;42.668;23.346;2023-03-21T03:33:41;94304.77;;;12.43;61.72
5777;BME280;2914;42.668;23.346;2023-03-21T03:36:14;94299.02;;;12.48;61.49
5777;BME280;2914;42.668;23.346;2023-03-21T03:38:45;94303.47;;;12.51;61.26
5777;BME280;2914;42.668;23.346;2023-03-21T03:41:18;94303.00;;;12.52;61.09
5777;BME280;2914;42.668;23.346;2023-03-21T03:43:51;94301.69;;;12.56;60.78
5777;BME280;2914;42.668;23.346;2023-03-21T03:49:11;94299.98;;;12.43;61.23
5777;BME280;2914;42.668;23.346;2023-03-21T03:51:46;94306.83;;;12.19;61.72
5777;BME280;2914;42.668;23.346;2023-03-21T03:54:16;94305.00;;;11.93;62.49
5777;BME280;2914;42.668;23.346;2023-03-21T03:56:46;94306.38;;;11.97;62.07
5777;BME280;2914;42.668;23.346;2023-03-21T03:59:17;94307.97;;;11.90;62.22
5777;BME280;2914;42.668;23.346;2023-03-21T04:01:48;94305.38;;;11.94;62.05
5777;BME280;2914;42.668;23.346;2023-03-21T04:04:17;94305.56;;;11.97;61.67
5777;BME280;2914;42.668;23.346;2023-03-21T04:09:25;94301.83;;;12.08;61.44
5777;BME280;2914;42.668;23.346;2023-03-21T04:11:55;94306.08;;;12.04;61.11
5777;BME280;2914;42.668;23.346;2023-03-21T04:14:25;94309.73;;;12.03;61.31
5777;BME280;2914;42.668;23.346;2023-03-21T04:16:54;94305.91;;;12.06;61.06
5777;BME280;2914;42.668;23.346;2023-03-21T04:19:23;94314.52;;;12.04;61.25
5777;BME280;2914;42.668;23.346;2023-03-21T04:21:53;94311.08;;;12.08;61.06
5777;BME280;2914;42.668;23.346;2023-03-21T04:24:22;94298.19;;;12.13;60.72
5777;BME280;2914;42.668;23.346;2023-03-21T04:26:51;94299.20;;;12.12;60.74
5777;BME280;2914;42.668;23.346;2023-03-21T04:29:20;94295.91;;;12.18;60.46
5777;BME280;2914;42.668;23.346;2023-03-21T04:31:49;94292.47;;;12.21;60.44
5777;BME280;2914;42.668;23.346;2023-03-21T04:34:20;94286.83;;;12.20;60.44
5777;BME280;2914;42.668;23.346;2023-03-21T04:36:50;94283.84;;;12.19;60.70
5777;BME280;2914;42.668;23.346;2023-03-21T04:39:21;94290.96;;;12.19;61.31
5777;BME280;2914;42.668;23.346;2023-03-21T04:41:51;94299.02;;;12.09;61.78
5777;BME280;2914;42.668;23.346;2023-03-21T04:44:20;94298.20;;;12.17;61.39
5777;BME280;2914;42.668;23.346;2023-03-21T04:46:49;94293.93;;;12.16;61.70
5777;BME280;2914;42.668;23.346;2023-03-21T04:49:18;94297.55;;;12.15;61.52
5777;BME280;2914;42.668;23.346;2023-03-21T04:51:47;94295.75;;;12.19;61.14
5777;BME280;2914;42.668;23.346;2023-03-21T04:54:16;94298.39;;;12.19;61.13
5777;BME280;2914;42.668;23.346;2023-03-21T04:56:47;94299.53;;;12.17;61.52
5777;BME280;2914;42.668;23.346;2023-03-21T04:59:18;94303.48;;;12.13;61.62
5777;BME280;2914;42.668;23.346;2023-03-21T05:01:48;94299.86;;;12.14;61.54
5777;BME280;2914;42.668;23.346;2023-03-21T05:04:17;94306.16;;;12.21;63.44
5777;BME280;2914;42.668;23.346;2023-03-21T05:06:47;94305.00;;;12.19;61.74
5777;BME280;2914;42.668;23.346;2023-03-21T05:09:16;94316.90;;;12.19;61.53
5777;BME280;2914;42.668;23.346;2023-03-21T05:11:46;94314.73;;;12.15;61.54
5777;BME280;2914;42.668;23.346;2023-03-21T05:16:55;94316.38;;;12.12;62.75
5777;BME280;2914;42.668;23.346;2023-03-21T05:22:06;94313.05;;;12.10;62.33
5777;BME280;2914;42.668;23.346;2023-03-21T05:27:14;94315.19;;;12.10;62.21
5777;BME280;2914;42.668;23.346;2023-03-21T05:29:45;94320.80;;;12.07;62.25
5777;BME280;2914;42.668;23.346;2023-03-21T05:34:52;94316.19;;;11.83;62.93
5777;BME280;2914;42.668;23.346;2023-03-21T05:40:08;94322.91;;;11.95;62.54
5777;BME280;2914;42.668;23.346;2023-03-21T05:42:37;94321.84;;;11.92;62.37
5777;BME280;2914;42.668;23.346;2023-03-21T05:45:10;94318.64;;;12.02;62.18
5777;BME280;2914;42.668;23.346;2023-03-21T05:50:17;94314.05;;;12.13;62.87
5777;BME280;2914;42.668;23.346;2023-03-21T05:52:47;94316.86;;;12.11;62.18
5777;BME280;2914;42.668;23.346;2023-03-21T05:57:55;94307.17;;;12.20;62.24
5777;BME280;2914;42.668;23.346;2023-03-21T06:00:25;94300.56;;;12.20;62.27
5777;BME280;2914;42.668;23.346;2023-03-21T06:02:54;94303.41;;;12.35;61.80
5777;BME280;2914;42.668;23.346;2023-03-21T06:05:23;94295.03;;;12.44;61.87
5777;BME280;2914;42.668;23.346;2023-03-21T06:07:52;94296.37;;;12.48;61.71
5777;BME280;2914;42.668;23.346;2023-03-21T06:10:22;94297.73;;;12.60;61.78
5777;BME280;2914;42.668;23.346;2023-03-21T06:12:51;94293.28;;;12.69;61.45
5777;BME280;2914;42.668;23.346;2023-03-21T06:17:58;94282.30;;;13.19;81.47
5777;BME280;2914;42.668;23.346;2023-03-21T06:23:12;94301.83;;;13.26;63.47
5777;BME280;2914;42.668;23.346;2023-03-21T06:25:42;94297.34;;;13.27;62.12
5777;BME280;2914;42.668;23.346;2023-03-21T06:28:11;94299.66;;;13.30;61.26
5777;BME280;2914;42.668;23.346;2023-03-21T06:30:40;94295.88;;;13.36;60.38
5777;BME280;2914;42.668;23.346;2023-03-21T06:33:09;94293.41;;;13.43;59.70
5777;BME280;2914;42.668;23.346;2023-03-21T06:35:38;94298.87;;;13.50;58.63
5777;BME280;2914;42.668;23.346;2023-03-21T06:40:51;94292.23;;;13.58;58.72
5777;BME280;2914;42.668;23.346;2023-03-21T06:43:20;94296.73;;;13.45;58.86
5777;BME280;2914;42.668;23.346;2023-03-21T06:45:50;94297.55;;;13.50;58.84
5777;BME280;2914;42.668;23.346;2023-03-21T06:48:20;94302.67;;;13.51;59.47
5777;BME280;2914;42.668;23.346;2023-03-21T06:50:49;94306.48;;;13.53;59.07
5777;BME280;2914;42.668;23.346;2023-03-21T06:53:20;94314.26;;;13.38;58.87
5777;BME280;2914;42.668;23.346;2023-03-21T06:58:28;94311.30;;;13.45;58.02
5777;BME280;2914;42.668;23.346;2023-03-21T07:00:59;94316.59;;;13.37;58.01
5777;BME280;2914;42.668;23.346;2023-03-21T07:03:28;94319.56;;;13.42;58.12
5777;BME280;2914;42.668;23.346;2023-03-21T07:05:58;94316.27;;;13.48;58.28
5777;BME280;2914;42.668;23.346;2023-03-21T07:08:27;94317.55;;;13.28;58.87
5777;BME280;2914;42.668;23.346;2023-03-21T07:10:56;94321.56;;;13.36;59.04
5777;BME280;2914;42.668;23.346;2023-03-21T07:13:25;94326.05;;;13.44;59.50
5777;BME280;2914;42.668;23.346;2023-03-21T07:15:54;94315.92;;;13.51;58.82
5777;BME280;2914;42.668;23.346;2023-03-21T07:18:23;94322.07;;;13.48;58.23
5777;BME280;2914;42.668;23.346;2023-03-21T07:20:53;94315.58;;;13.46;58.52
5777;BME280;2914;42.668;23.346;2023-03-21T07:23:23;94316.77;;;13.60;58.55
5777;BME280;2914;42.668;23.346;2023-03-21T07:25:54;94324.05;;;13.54;58.84
5777;BME280;2914;42.668;23.346;2023-03-21T07:28:23;94327.67;;;13.65;59.24
5777;BME280;2914;42.668;23.346;2023-03-21T07:30:55;94328.69;;;13.72;59.39
5777;BME280;2914;42.668;23.346;2023-03-21T07:33:24;94324.85;;;13.71;58.85
5777;BME280;2914;42.668;23.346;2023-03-21T07:35:54;94320.88;;;13.67;58.72
5777;BME280;2914;42.668;23.346;2023-03-21T07:41:08;94318.55;;;13.88;59.00
5777;BME280;2914;42.668;23.346;2023-03-21T07:43:38;94314.73;;;13.91;58.84
5777;BME280;2914;42.668;23.346;2023-03-21T07:46:08;94317.39;;;13.83;59.46
5777;BME280;2914;42.668;23.346;2023-03-21T07:48:37;94315.57;;;13.75;62.70
5777;BME280;2914;42.668;23.346;2023-03-21T07:51:07;94311.59;;;13.75;64.04
5777;BME280;2914;42.668;23.346;2023-03-21T07:53:36;94314.73;;;13.87;62.61
5777;BME280;2914;42.668;23.346;2023-03-21T07:56:07;94320.20;;;13.89;61.79
5777;BME280;2914;42.668;23.346;2023-03-21T07:58:37;94314.34;;;14.15;89.55
5777;BME280;2914;42.668;23.346;2023-03-21T08:01:07;94311.28;;;14.47;97.84
5777;BME280;2914;42.668;23.346;2023-03-21T08:03:36;94322.02;;;14.49;71.07
5777;BME280;2914;42.668;23.346;2023-03-21T08:06:06;94329.56;;;14.33;60.34
5777;BME280;2914;42.668;23.346;2023-03-21T08:08:35;94329.36;;;14.43;57.88
5777;BME280;2914;42.668;23.346;2023-03-21T08:11:05;94325.72;;;14.44;57.16
5777;BME280;2914;42.668;23.346;2023-03-21T08:13:35;94324.39;;;14.44;57.02
5777;BME280;2914;42.668;23.346;2023-03-21T08:16:05;94329.02;;;14.42;56.75
5777;BME280;2914;42.668;23.346;2023-03-21T08:18:35;94326.03;;;14.41;56.39
5777;BME280;2914;42.668;23.346;2023-03-21T08:21:07;94327.50;;;14.48;57.50
5777;BME280;2914;42.668;23.346;2023-03-21T08:23:35;94325.67;;;14.56;58.01
5777;BME280;2914;42.668;23.346;2023-03-21T08:26:13;94319.02;;;14.61;57.97
5777;BME280;2914;42.668;23.346;2023-03-21T08:28:45;94308.71;;;14.66;57.94
5777;BME280;2914;42.668;23.346;2023-03-21T08:31:27;94309.73;;;14.61;57.48
5777;BME280;2914;42.668;23.346;2023-03-21T08:33:56;94309.91;;;14.59;57.18
5777;BME280;2914;42.668;23.346;2023-03-21T08:36:25;94308.73;;;14.53;55.49
5777;BME280;2914;42.668;23.346;2023-03-21T08:41:38;94307.37;;;14.70;53.81
5777;BME280;2914;42.668;23.346;2023-03-21T08:44:08;94319.47;;;14.72;54.57
5777;BME280;2914;42.668;23.346;2023-03-21T08:46:37;94318.48;;;14.73;53.99
5777;BME280;2914;42.668;23.346;2023-03-21T08:49:06;94324.80;;;14.68;52.78
5777;BME280;2914;42.668;23.346;2023-03-21T08:51:36;94314.00;;;14.70;52.95
5777;BME280;2914;42.668;23.346;2023-03-21T08:54:05;94318.14;;;14.72;53.88
5777;BME280;2914;42.668;23.346;2023-03-21T08:56:34;94316.94;;;14.83;53.89
5777;BME280;2914;42.668;23.346;2023-03-21T08:59:03;94316.43;;;14.88;53.90
5777;BME280;2914;42.668;23.346;2023-03-21T09:01:32;94307.14;;;14.88;54.57
5777;BME280;2914;42.668;23.346;2023-03-21T09:04:01;94305.25;;;14.97;53.92
5777;BME280;2914;42.668;23.346;2023-03-21T09:06:30;94308.39;;;15.00;52.71
5777;BME280;2914;42.668;23.346;2023-03-21T09:09:00;94299.08;;;15.04;52.55
5777;BME280;2914;42.668;23.346;2023-03-21T09:11:30;94302.91;;;15.02;51.51
5777;BME280;2914;42.668;23.346;2023-03-21T09:13:59;94301.39;;;15.03;52.04
5777;BME280;2914;42.668;23.346;2023-03-21T09:16:29;94292.55;;;15.07;52.32
5777;BME280;2914;42.668;23.346;2023-03-21T09:18:59;94293.06;;;15.06;51.25
5777;BME280;2914;42.668;23.346;2023-03-21T09:21:31;94292.55;;;15.07;51.35
5777;BME280;2914;42.668;23.346;2023-03-21T09:24:00;94288.42;;;15.08;51.28
5777;BME280;2914;42.668;23.346;2023-03-21T09:26:29;94286.40;;;15.10;52.26
5777;BME280;2914;42.668;23.346;2023-03-21T09:28:59;94276.89;;;15.16;52.28
5777;BME280;2914;42.668;23.346;2023-03-21T09:31:30;94271.55;;;15.20;52.75
5777;BME280;2914;42.668;23.346;2023-03-21T09:33:59;94266.39;;;15.23;50.92
5777;BME280;2914;42.668;23.346;2023-03-21T09:36:28;94262.73;;;15.24;53.38
5777;BME280;2914;42.668;23.346;2023-03-21T09:38:59;94264.66;;;15.30;52.39
5777;BME280;2914;42.668;23.346;2023-03-21T09:41:39;94266.69;;;15.28;50.75
5777;BME280;2914;42.668;23.346;2023-03-21T09:44:20;94261.41;;;15.24;50.86
5777;BME280;2914;42.668;23.346;2023-03-21T09:49:33;94241.34;;;15.40;50.70
5777;BME280;2914;42.668;23.346;2023-03-21T09:52:11;94241.78;;;15.29;50.00
5777;BME280;2914;42.668;23.346;2023-03-21T09:54:37;94247.73;;;15.31;50.31
5777;BME280;2914;42.668;23.346;2023-03-21T09:57:15;94248.05;;;15.32;50.67
5777;BME280;2914;42.668;23.346;2023-03-21T09:59:47;94245.70;;;15.37;51.95
5777;BME280;2914;42.668;23.346;2023-03-21T10:02:32;94252.34;;;15.37;51.97
5777;BME280;2914;42.668;23.346;2023-03-21T10:05:10;94248.75;;;15.26;51.67
5777;BME280;2914;42.668;23.346;2023-03-21T10:07:43;94240.59;;;14.85;52.79
5777;BME280;2914;42.668;23.346;2023-03-21T10:10:16;94236.08;;;14.90;52.81
5777;BME280;2914;42.668;23.346;2023-03-21T10:12:46;94237.14;;;15.04;52.58
5777;BME280;2914;42.668;23.346;2023-03-21T10:15:18;94238.37;;;15.16;53.17
5777;BME280;2914;42.668;23.346;2023-03-21T10:17:53;94227.96;;;15.10;52.28
5777;BME280;2914;42.668;23.346;2023-03-21T10:20:24;94221.14;;;15.12;52.81
5777;BME280;2914;42.668;23.346;2023-03-21T10:22:54;94211.55;;;15.26;52.58
5777;BME280;2914;42.668;23.346;2023-03-21T10:25:29;94205.91;;;15.29;52.03
5777;BME280;2914;42.668;23.346;2023-03-21T10:28:00;94213.30;;;15.38;51.26
5777;BME280;2914;42.668;23.346;2023-03-21T10:30:35;94220.45;;;15.52;51.47
5777;BME280;2914;42.668;23.346;2023-03-21T10:33:07;94213.03;;;15.48;50.96
5777;BME280;2914;42.668;23.346;2023-03-21T10:35:38;94215.16;;;15.67;50.81
5777;BME280;2914;42.668;23.346;2023-03-21T10:40:56;94218.21;;;15.79;49.32
5777;BME280;2914;42.668;23.346;2023-03-21T10:43:36;94222.95;;;15.69;49.65
5777;BME280;2914;42.668;23.346;2023-03-21T10:46:10;94227.35;;;15.61;47.40
5777;BME280;2914;42.668;23.346;2023-03-21T10:48:41;94225.54;;;15.62;46.82
5777;BME280;2914;42.668;23.346;2023-03-21T10:51:15;94224.44;;;15.52;46.87
5777;BME280;2914;42.668;23.346;2023-03-21T10:53:50;94221.18;;;15.65;45.48
5777;BME280;2914;42.668;23.346;2023-03-21T10:56:22;94222.95;;;15.69;45.59
5777;BME280;2914;42.668;23.346;2023-03-21T10:58:54;94212.06;;;15.83;47.43
5777;BME280;2914;42.668;23.346;2023-03-21T11:01:28;94203.11;;;15.94;47.12
5777;BME280;2914;42.668;23.346;2023-03-21T11:04:04;94202.11;;;15.96;46.90
5777;BME280;2914;42.668;23.346;2023-03-21T11:06:33;94196.61;;;15.78;47.15
5777;BME280;2914;42.668;23.346;2023-03-21T11:09:05;94195.88;;;15.88;46.81
5777;BME280;2914;42.668;23.346;2023-03-21T11:11:38;94190.28;;;15.98;45.88
5777;BME280;2914;42.668;23.346;2023-03-21T11:14:19;94184.20;;;16.04;46.86
5777;BME280;2914;42.668;23.346;2023-03-21T11:16:42;94181.73;;;16.03;45.96
5777;BME280;2914;42.668;23.346;2023-03-21T11:19:17;94182.10;;;16.15;46.60
5777;BME280;2914;42.668;23.346;2023-03-21T11:21:46;94184.00;;;16.21;44.94
5777;BME280;2914;42.668;23.346;2023-03-21T11:24:16;94179.28;;;16.27;44.92
5777;BME280;2914;42.668;23.346;2023-03-21T11:26:47;94176.24;;;16.30;44.35
5777;BME280;2914;42.668;23.346;2023-03-21T11:29:26;94180.13;;;16.38;44.22
5777;BME280;2914;42.668;23.346;2023-03-21T11:31:59;94171.63;;;16.39;44.46
5777;BME280;2914;42.668;23.346;2023-03-21T11:34:32;94160.24;;;16.45;44.08
5777;BME280;2914;42.668;23.346;2023-03-21T11:37:02;94154.08;;;16.34;43.99
5777;BME280;2914;42.668;23.346;2023-03-21T11:39:34;94154.52;;;16.37;44.50
5777;BME280;2914;42.668;23.346;2023-03-21T11:42:23;94150.92;;;16.45;44.79
5777;BME280;2914;42.668;23.346;2023-03-21T11:45:02;94151.73;;;16.45;43.86
5777;BME280;2914;42.668;23.346;2023-03-21T11:50:24;94135.98;;;16.55;44.31
5777;BME280;2914;42.668;23.346;2023-03-21T11:56:07;94137.81;;;16.43;43.17
5777;BME280;2914;42.668;23.346;2023-03-21T11:58:48;94133.22;;;16.37;43.45
5777;BME280;2914;42.668;23.346;2023-03-21T12:01:20;94131.97;;;16.44;43.38
5777;BME280;2914;42.668;23.346;2023-03-21T12:04:02;94134.50;;;16.41;44.23
5777;BME280;2914;42.668;23.346;2023-03-21T12:06:35;94136.16;;;16.42;44.05
5777;BME280;2914;42.668;23.346;2023-03-21T12:09:15;94130.39;;;16.50;43.74
5777;BME280;2914;42.668;23.346;2023-03-21T12:12:08;94119.48;;;16.55;43.48
5777;BME280;2914;42.668;23.346;2023-03-21T12:14:42;94112.14;;;16.57;43.34
5777;BME280;2914;42.668;23.346;2023-03-21T12:17:19;94107.89;;;16.52;43.26
5777;BME280;2914;42.668;23.346;2023-03-21T12:20:02;94108.91;;;16.40;43.20
5777;BME280;2914;42.668;23.346;2023-03-21T12:22:40;94108.53;;;16.43;42.68
5777;BME280;2914;42.668;23.346;2023-03-21T12:27:55;94104.30;;;16.60;43.48
5777;BME280;2914;42.668;23.346;2023-03-21T12:33:20;94102.67;;;16.33;43.47
5777;BME280;2914;42.668;23.346;2023-03-21T12:38:42;94086.45;;;16.39;44.12
5777;BME280;2914;42.668;23.346;2023-03-21T12:44:03;94083.93;;;16.52;44.40
5777;BME280;2914;42.668;23.346;2023-03-21T12:49:21;94085.00;;;16.58;43.93
5777;BME280;2914;42.668;23.346;2023-03-21T12:51:54;94086.66;;;16.48;42.99
5777;BME280;2914;42.668;23.346;2023-03-21T12:57:07;94073.11;;;16.32;42.93
5777;BME280;2914;42.668;23.346;2023-03-21T13:02:28;94070.61;;;16.41;43.19
5777;BME280;2914;42.668;23.346;2023-03-21T13:05:02;94071.51;;;16.27;43.39
5777;BME280;2914;42.668;23.346;2023-03-21T13:07:34;94066.52;;;16.28;43.79
5777;BME280;2914;42.668;23.346;2023-03-21T13:10:11;94061.55;;;16.36;43.28
5777;BME280;2914;42.668;23.346;2023-03-21T13:13:00;94063.73;;;16.36;43.56
5777;BME280;2914;42.668;23.346;2023-03-21T13:15:40;94055.36;;;16.39;43.62
5777;BME280;2914;42.668;23.346;2023-03-21T13:18:16;94056.23;;;16.47;43.45
5777;BME280;2914;42.668;23.346;2023-03-21T13:20:48;94054.71;;;16.48;43.53
5777;BME280;2914;42.668;23.346;2023-03-21T13:23:20;94059.84;;;16.50;44.11
5777;BME280;2914;42.668;23.346;2023-03-21T13:25:51;94056.37;;;16.49;43.99
5777;BME280;2914;42.668;23.346;2023-03-21T13:28:25;94052.17;;;16.61;43.71
5777;BME280;2914;42.668;23.346;2023-03-21T13:30:53;94044.88;;;16.59;43.98
5777;BME280;2914;42.668;23.346;2023-03-21T13:33:28;94040.45;;;16.56;44.21
5777;BME280;2914;42.668;23.346;2023-03-21T13:36:04;94042.60;;;16.56;44.36
5777;BME280;2914;42.668;23.346;2023-03-21T13:38:33;94042.31;;;16.44;44.63
5777;BME280;2914;42.668;23.346;2023-03-21T13:41:08;94036.41;;;16.49;44.83
5777;BME280;2914;42.668;23.346;2023-03-21T13:43:44;94034.42;;;16.58;45.23
5777;BME280;2914;42.668;23.346;2023-03-21T13:46:33;94034.13;;;16.57;44.92
5777;BME280;2914;42.668;23.346;2023-03-21T13:48:54;94039.61;;;16.66;45.04
5777;BME280;2914;42.668;23.346;2023-03-21T13:51:43;94031.33;;;16.65;44.76
5777;BME280;2914;42.668;23.346;2023-03-21T13:54:25;94027.48;;;16.74;45.02
5777;BME280;2914;42.668;23.346;2023-03-21T13:56:58;94026.10;;;16.68;44.85
5777;BME280;2914;42.668;23.346;2023-03-21T13:59:40;94025.63;;;16.57;44.76
5777;BME280;2914;42.668;23.346;2023-03-21T14:02:31;94027.34;;;16.54;45.23
5777;BME280;2914;42.668;23.346;2023-03-21T14:05:03;94030.42;;;16.58;45.42
5777;BME280;2914;42.668;23.346;2023-03-21T14:07:34;94021.62;;;16.57;45.66
5777;BME280;2914;42.668;23.346;2023-03-21T14:10:12;94025.49;;;16.55;46.28
5777;BME280;2914;42.668;23.346;2023-03-21T14:12:40;94024.91;;;16.59;46.72
5777;BME280;2914;42.668;23.346;2023-03-21T14:15:16;94021.11;;;16.58;46.48
5777;BME280;2914;42.668;23.346;2023-03-21T14:17:51;94016.11;;;16.59;47.42
5777;BME280;2914;42.668;23.346;2023-03-21T14:20:23;94023.70;;;16.62;47.63
5777;BME280;2914;42.668;23.346;2023-03-21T14:22:53;94022.02;;;16.54;47.89
5777;BME280;2914;42.668;23.346;2023-03-21T14:25:24;94020.81;;;16.57;47.72
5777;BME280;2914;42.668;23.346;2023-03-21T14:27:55;94017.05;;;16.51;47.72
5777;BME280;2914;42.668;23.346;2023-03-21T14:30:29;94019.91;;;16.50;47.82
5777;BME280;2914;42.668;23.346;2023-03-21T14:33:00;94021.38;;;16.52;48.00
5777;BME280;2914;42.668;23.346;2023-03-21T14:35:31;94019.30;;;16.48;48.15
5777;BME280;2914;42.668;23.346;2023-03-21T14:38:03;94021.70;;;16.42;48.29
5777;BME280;2914;42.668;23.346;2023-03-21T14:40:34;94015.92;;;16.50;48.08
5777;BME280;2914;42.668;23.346;2023-03-21T14:43:05;94010.98;;;16.47;50.32
5777;BME280;2914;42.668;23.346;2023-03-21T14:45:35;94016.05;;;16.52;48.63
5777;BME280;2914;42.668;23.346;2023-03-21T14:48:07;94015.36;;;16.54;48.65
5777;BME280;2914;42.668;23.346;2023-03-21T14:50:39;94019.28;;;16.58;48.37
5777;BME280;2914;42.668;23.346;2023-03-21T14:53:14;94015.23;;;16.52;48.55
5777;BME280;2914;42.668;23.346;2023-03-21T14:55:46;94012.89;;;16.53;48.96
5777;BME280;2914;42.668;23.346;2023-03-21T14:58:17;94014.23;;;16.53;49.10
5777;BME280;2914;42.668;23.346;2023-03-21T15:00:49;94018.77;;;16.48;49.31
5777;BME280;2914;42.668;23.346;2023-03-21T15:03:21;94018.28;;;16.49;49.71
5777;BME280;2914;42.668;23.346;2023-03-21T15:05:52;94020.63;;;16.48;50.23